Time;durP1;ratioP1;P1;durP2;ratioP2;P2;SDS_P1;SDS_P2;PMS_P1;PMS_P2;Temp;Humidity;BMP_temperature;BMP_pressure;BME280_temperature;BME280_humidity;BME280_pressure;Samples;Min_cycle;Max_cycle;Signal;HPM_P1;HPM_P2
2022/08/19 04:05:32;;;;;;;13.80;9.00;;;20.20;99.90;;;;;;5045132;23;20484;-67
2022/08/19 04:07:58;;;;;;;18.53;12.03;;;20.10;99.90;;;;;;5012837;28;20430;-66
2022/08/19 04:10:24;;;;;;;15.03;9.53;;;20.10;99.90;;;;;;5013746;28;20182;-66
2022/08/19 04:12:50;;;;;;;14.13;10.77;;;20.10;99.90;;;;;;5014575;28;20775;-67
2022/08/19 04:15:16;;;;;;;13.37;9.60;;;20.20;99.90;;;;;;4996507;28;20459;-67
2022/08/19 04:17:41;;;;;;;14.13;10.47;;;20.10;99.90;;;;;;4995414;28;20187;-66
2022/08/19 04:20:07;;;;;;;13.33;9.50;;;20.10;99.90;;;;;;4991910;28;20436;-66
2022/08/19 04:22:33;;;;;;;14.33;10.67;;;20.10;99.90;;;;;;4975110;28;20646;-66
2022/08/19 04:24:58;;;;;;;14.27;9.40;;;20.10;99.90;;;;;;4975599;28;20431;-67
2022/08/19 04:27:24;;;;;;;12.80;10.40;;;20.10;99.90;;;;;;4975833;28;20188;-67
2022/08/19 04:29:50;;;;;;;13.10;10.50;;;20.10;99.90;;;;;;4975588;28;20180;-67
2022/08/19 04:32:15;;;;;;;12.27;10.20;;;20.00;99.90;;;;;;4975381;28;20176;-67
2022/08/19 04:34:42;;;;;;;18.50;12.10;;;20.10;99.90;;;;;;4975241;28;20287;-68
2022/08/19 04:37:12;;;;;;;16.07;11.67;;;20.00;99.90;;;;;;4994944;28;20198;-67
2022/08/19 04:42:38;;;;;;;17.07;12.07;;;20.00;99.90;;;;;;4994915;28;20477;-68
2022/08/19 04:45:10;;;;;;;16.70;11.07;;;20.00;99.90;;;;;;4994431;28;20450;-67
2022/08/19 04:47:41;;;;;;;14.77;11.27;;;20.00;99.90;;;;;;4994796;28;20377;-67
2022/08/19 04:50:10;;;;;;;16.43;10.97;;;20.00;99.90;;;;;;4997022;28;20464;-67
2022/08/19 04:52:36;;;;;;;19.00;13.20;;;20.00;99.90;;;;;;4985173;28;20435;-67
2022/08/19 04:55:02;;;;;;;12.30;9.40;;;20.00;99.90;;;;;;4976573;28;20418;-69
2022/08/19 04:57:28;;;;;;;15.00;10.37;;;20.00;99.90;;;;;;4977248;28;20419;-68
2022/08/19 04:59:55;;;;;;;17.90;12.00;;;20.00;99.90;;;;;;4976049;28;20400;-68
2022/08/19 05:02:25;;;;;;;16.43;11.03;;;20.00;99.90;;;;;;4976253;28;20539;-68
2022/08/19 05:04:56;;;;;;;15.60;11.40;;;20.00;99.90;;;;;;4976153;28;20787;-68
2022/08/19 05:07:21;;;;;;;14.73;10.13;;;20.10;99.90;;;;;;4991024;28;20434;-69
2022/08/19 05:09:47;;;;;;;16.30;12.00;;;20.10;99.90;;;;;;4994409;28;20382;-68
2022/08/19 05:12:12;;;;;;;17.80;12.13;;;20.10;99.90;;;;;;4994051;28;20174;-69
2022/08/19 05:14:38;;;;;;;17.30;12.20;;;20.10;99.90;;;;;;4993631;28;20245;-67
2022/08/19 05:17:03;;;;;;;15.37;10.57;;;20.10;99.90;;;;;;4994170;28;20239;-67
2022/08/19 05:22:35;;;;;;;15.00;11.23;;;20.10;99.90;;;;;;4967335;28;20184;-67
2022/08/19 05:25:12;;;;;;;15.37;11.93;;;20.20;99.90;;;;;;4974675;28;20404;-68
2022/08/19 05:27:38;;;;;;;13.67;10.50;;;20.20;99.90;;;;;;4975073;28;20370;-67
2022/08/19 05:30:04;;;;;;;17.63;12.93;;;20.20;99.90;;;;;;4974542;28;20431;-67
2022/08/19 05:32:30;;;;;;;22.57;14.10;;;20.20;99.90;;;;;;4980743;28;20761;-67
2022/08/19 05:34:56;;;;;;;17.57;11.73;;;20.20;99.90;;;;;;4993704;28;20426;-66
2022/08/19 05:37:22;;;;;;;14.10;9.60;;;20.30;99.90;;;;;;4994221;28;20237;-67
2022/08/19 05:39:48;;;;;;;14.70;11.63;;;20.30;99.90;;;;;;4993893;28;20249;-68
2022/08/19 05:42:15;;;;;;;15.57;11.77;;;20.30;99.90;;;;;;4992070;28;20246;-67
2022/08/19 05:44:44;;;;;;;21.50;11.50;;;20.30;99.90;;;;;;4993782;28;20419;-67
2022/08/19 05:47:11;;;;;;;17.20;11.73;;;20.40;99.90;;;;;;4993841;28;20414;-67
2022/08/19 05:49:37;;;;;;;13.33;11.33;;;20.40;99.90;;;;;;4982284;28;20434;-68
2022/08/19 05:52:05;;;;;;;15.30;10.87;;;20.40;99.90;;;;;;4980512;28;20766;-68
2022/08/19 05:54:32;;;;;;;13.70;10.73;;;20.40;99.90;;;;;;4973935;28;20488;-67
2022/08/19 05:56:58;;;;;;;15.23;11.30;;;20.40;99.90;;;;;;4990750;28;20439;-68
2022/08/19 05:59:23;;;;;;;13.93;10.63;;;20.40;99.90;;;;;;4973386;28;20398;-69
2022/08/19 06:01:54;;;;;;;13.90;10.53;;;20.40;99.90;;;;;;4974284;28;20439;-69
2022/08/19 06:04:20;;;;;;;16.33;11.90;;;20.40;99.90;;;;;;4973524;28;20196;-71
2022/08/19 06:06:48;;;;;;;15.57;11.40;;;20.40;99.90;;;;;;4974283;28;20784;-70
2022/08/19 06:09:14;;;;;;;15.40;11.47;;;20.40;99.90;;;;;;4977606;28;20813;-70
2022/08/19 06:11:49;;;;;;;17.53;12.00;;;20.40;99.90;;;;;;4978105;28;20443;-70
2022/08/19 06:14:18;;;;;;;17.70;10.97;;;20.50;99.90;;;;;;4977603;28;20191;-70
2022/08/19 06:16:44;;;;;;;15.63;12.30;;;20.50;99.90;;;;;;4977842;28;20526;-69
2022/08/19 06:19:15;;;;;;;17.47;13.17;;;20.50;99.90;;;;;;4994849;28;20832;-69
2022/08/19 06:21:43;;;;;;;14.30;11.57;;;20.40;99.90;;;;;;4996162;28;20469;-69
2022/08/19 06:24:11;;;;;;;16.17;12.37;;;20.40;99.90;;;;;;4996634;28;20438;-70
2022/08/19 06:26:39;;;;;;;16.50;13.20;;;20.40;99.90;;;;;;4995577;28;20773;-69
2022/08/19 06:29:07;;;;;;;16.73;11.90;;;20.50;99.90;;;;;;4997376;28;20487;-69
2022/08/19 06:31:34;;;;;;;15.47;11.93;;;20.50;99.90;;;;;;4997373;28;20403;-69
2022/08/19 06:34:02;;;;;;;15.23;11.33;;;20.50;99.90;;;;;;4978632;28;20448;-70
2022/08/19 06:36:41;;;;;;;16.80;11.53;;;20.60;99.90;;;;;;4977841;28;20525;-69
2022/08/19 06:39:16;;;;;;;17.47;11.97;;;20.60;99.90;;;;;;4976461;28;20901;-67
2022/08/19 06:41:44;;;;;;;19.67;12.97;;;20.60;99.90;;;;;;4977542;28;20412;-70
2022/08/19 06:44:11;;;;;;;17.00;13.07;;;20.60;99.90;;;;;;4977019;28;20443;-67
2022/08/19 06:46:38;;;;;;;19.87;13.40;;;20.60;99.90;;;;;;4976322;28;20473;-67
2022/08/19 06:49:04;;;;;;;18.10;13.27;;;20.60;99.90;;;;;;4997203;28;20407;-66
2022/08/19 06:51:32;;;;;;;20.53;12.17;;;20.60;99.90;;;;;;4995617;28;20856;-66
2022/08/19 06:53:58;;;;;;;19.10;12.53;;;20.60;99.90;;;;;;4996341;28;20770;-68
2022/08/19 06:56:34;;;;;;;13.90;11.43;;;20.60;99.90;;;;;;4994963;28;20451;-69
2022/08/19 06:59:06;;;;;;;15.00;12.17;;;20.60;99.90;;;;;;4977318;28;20393;-68
2022/08/19 07:01:40;;;;;;;14.97;11.10;;;20.70;99.90;;;;;;4977275;28;20467;-67
2022/08/19 07:04:08;;;;;;;17.20;12.20;;;20.80;99.90;;;;;;4976700;28;20424;-67
2022/08/19 07:06:34;;;;;;;15.20;11.30;;;20.80;99.90;;;;;;4977118;28;20478;-68
2022/08/19 07:09:00;;;;;;;13.77;9.80;;;20.80;99.90;;;;;;4977183;28;20397;-68
2022/08/19 07:11:26;;;;;;;16.40;12.47;;;20.90;99.90;;;;;;4980607;28;20418;-69
2022/08/19 07:13:52;;;;;;;15.03;12.20;;;21.00;99.90;;;;;;4995945;28;20462;-66
2022/08/19 07:16:19;;;;;;;16.57;11.43;;;21.00;99.90;;;;;;4995532;28;20458;-67
2022/08/19 07:18:46;;;;;;;15.70;11.60;;;21.00;99.90;;;;;;4993811;28;20403;-68
2022/08/19 07:21:18;;;;;;;19.13;13.30;;;21.00;99.90;;;;;;4994707;28;20764;-66
2022/08/19 07:23:44;;;;;;;19.33;11.37;;;21.10;99.90;;;;;;4994628;28;20781;-68
2022/08/19 07:26:16;;;;;;;15.03;11.40;;;21.10;99.90;;;;;;4990408;28;20395;-67
2022/08/19 07:28:44;;;;;;;16.83;12.40;;;21.20;99.90;;;;;;4976344;28;20455;-66
2022/08/19 07:31:12;;;;;;;15.90;10.77;;;21.20;99.90;;;;;;4976428;28;20423;-66
2022/08/19 07:33:39;;;;;;;16.57;10.60;;;21.20;99.90;;;;;;4976223;28;20413;-69
2022/08/19 07:36:07;;;;;;;15.40;11.77;;;21.20;99.90;;;;;;4981969;28;20808;-67
2022/08/19 07:38:33;;;;;;;16.37;12.00;;;21.30;99.90;;;;;;4995924;28;20455;-66
2022/08/19 07:40:59;;;;;;;14.73;11.37;;;21.30;99.90;;;;;;4994475;28;20427;-67
2022/08/19 07:43:26;;;;;;;14.90;11.00;;;21.30;99.90;;;;;;4979258;28;20448;-68
2022/08/19 07:45:56;;;;;;;16.00;11.40;;;21.40;99.90;;;;;;4976392;28;20439;-69
2022/08/19 07:48:26;;;;;;;14.00;11.73;;;21.40;99.90;;;;;;4976498;28;20416;-66
2022/08/19 07:50:59;;;;;;;15.70;11.97;;;21.40;99.90;;;;;;4976697;28;20912;-68
2022/08/19 07:53:24;;;;;;;19.07;12.70;;;21.40;99.90;;;;;;4976037;28;20480;-66
2022/08/19 07:55:51;;;;;;;13.83;11.50;;;21.40;99.90;;;;;;4976194;28;20792;-66
2022/08/19 07:58:20;;;;;;;16.37;11.20;;;21.40;99.90;;;;;;4992807;28;20537;-69
2022/08/19 08:00:48;;;;;;;10.53;8.63;;;21.40;99.90;;;;;;4995568;28;20777;-68
2022/08/19 08:03:17;;;;;;;15.37;11.83;;;21.40;99.90;;;;;;4995004;28;20896;-67
2022/08/19 08:11:13;;;;;;;15.93;11.60;;;21.50;99.90;;;;;;4976283;28;20410;-68
2022/08/19 08:13:40;;;;;;;10.83;9.50;;;21.50;99.90;;;;;;4975458;28;20750;-67
2022/08/19 08:16:06;;;;;;;13.07;10.03;;;21.40;99.90;;;;;;4976070;28;20945;-69
2022/08/19 08:18:41;;;;;;;16.23;10.80;;;21.40;99.90;;;;;;4975835;28;20491;-67
2022/08/19 08:21:06;;;;;;;12.40;9.83;;;21.40;99.90;;;;;;4987167;28;20990;-68
2022/08/19 08:23:32;;;;;;;14.07;10.70;;;21.40;99.90;;;;;;4994710;28;20434;-69
2022/08/19 08:25:59;;;;;;;13.60;10.33;;;21.40;99.90;;;;;;4995278;28;20175;-67
2022/08/19 08:28:27;;;;;;;12.87;9.17;;;21.40;99.90;;;;;;4995142;28;20179;-69
2022/08/19 08:31:01;;;;;;;11.87;9.80;;;21.40;99.90;;;;;;4994286;28;20436;-70
2022/08/19 08:33:31;;;;;;;11.77;9.67;;;21.40;99.90;;;;;;4994484;28;20516;-70
2022/08/19 08:35:57;;;;;;;12.50;9.90;;;21.40;99.90;;;;;;4979728;28;20439;-66
2022/08/19 08:38:23;;;;;;;15.27;11.20;;;21.40;99.90;;;;;;4975596;28;20379;-66
2022/08/19 08:40:54;;;;;;;15.83;11.40;;;21.40;99.90;;;;;;4975397;28;20527;-69
2022/08/19 08:43:35;;;;;;;14.90;9.87;;;21.50;99.90;;;;;;4975096;28;20195;-66
2022/08/19 08:46:18;;;;;;;14.43;11.43;;;21.60;99.90;;;;;;4975450;28;20416;-65
2022/08/19 08:48:59;;;;;;;10.50;8.60;;;21.60;99.90;;;;;;4975381;28;20405;-67
2022/08/19 08:51:49;;;;;;;14.40;10.87;;;21.70;99.90;;;;;;4982927;28;20809;-68
2022/08/19 08:54:20;;;;;;;12.50;9.50;;;21.80;99.90;;;;;;4974698;28;20403;-68
2022/08/19 08:56:49;;;;;;;12.83;10.00;;;21.90;99.90;;;;;;4975031;28;20502;-67
2022/08/19 08:59:21;;;;;;;11.30;10.07;;;21.90;99.90;;;;;;4975189;28;20910;-67
2022/08/19 09:01:48;;;;;;;14.57;10.10;;;21.90;99.90;;;;;;4975256;28;20734;-68
2022/08/19 09:04:13;;;;;;;11.40;9.07;;;21.80;99.90;;;;;;4977968;28;20444;-67
2022/08/19 09:06:57;;;;;;;12.57;9.70;;;21.80;99.90;;;;;;4993202;28;20438;-66
2022/08/19 09:09:34;;;;;;;11.53;8.70;;;21.70;99.90;;;;;;4994455;28;20393;-66
2022/08/19 09:12:13;;;;;;;14.20;9.47;;;21.50;99.90;;;;;;4992999;28;20447;-67
2022/08/19 09:14:50;;;;;;;13.87;10.37;;;21.40;99.90;;;;;;4993946;28;20470;-67
2022/08/19 09:17:18;;;;;;;12.83;9.40;;;21.40;99.90;;;;;;4994301;28;20480;-67
2022/08/19 09:19:58;;;;;;;11.67;8.47;;;21.30;99.90;;;;;;4993977;28;20748;-68
2022/08/19 09:22:26;;;;;;;12.13;10.60;;;21.40;99.90;;;;;;4974178;28;20419;-66
2022/08/19 09:24:53;;;;;;;15.53;11.80;;;21.30;99.90;;;;;;4972923;28;20498;-65
2022/08/19 09:27:23;;;;;;;14.80;10.77;;;21.20;99.90;;;;;;4974760;28;20419;-65
2022/08/19 09:29:50;;;;;;;16.47;10.80;;;21.20;99.90;;;;;;4974795;28;20869;-67
2022/08/19 09:32:17;;;;;;;12.90;10.30;;;21.20;99.90;;;;;;4986941;28;20438;-68
2022/08/19 09:34:43;;;;;;;15.10;11.30;;;21.20;99.90;;;;;;4993535;28;20464;-67
2022/08/19 09:37:09;;;;;;;10.43;9.17;;;21.20;99.90;;;;;;4993828;28;20438;-68
2022/08/19 09:39:35;;;;;;;15.13;10.57;;;21.20;99.90;;;;;;4994044;28;20410;-67
2022/08/19 09:42:03;;;;;;;22.80;15.23;;;21.20;99.90;;;;;;4995772;28;20385;-70
2022/08/19 09:44:29;;;;;;;15.00;11.27;;;21.20;99.90;;;;;;4996391;28;20415;-69
2022/08/19 09:46:55;;;;;;;11.33;9.13;;;21.20;99.90;;;;;;4997210;28;20400;-69
2022/08/19 09:49:21;;;;;;;14.00;10.60;;;21.20;99.90;;;;;;4997846;28;20540;-69
2022/08/19 09:51:53;;;;;;;15.83;11.33;;;21.10;99.90;;;;;;4997910;28;20397;-69
2022/08/19 09:54:19;;;;;;;13.47;9.83;;;21.10;99.90;;;;;;4997568;28;20449;-70
2022/08/19 09:56:44;;;;;;;13.00;10.60;;;21.00;99.90;;;;;;4997954;28;20485;-68
2022/08/19 09:59:11;;;;;;;18.27;10.80;;;21.00;99.90;;;;;;4997956;28;20346;-70
2022/08/19 10:01:38;;;;;;;14.50;10.97;;;21.00;99.90;;;;;;4985924;28;20211;-69
2022/08/19 10:04:08;;;;;;;20.67;10.40;;;20.90;99.90;;;;;;4976522;28;20418;-70
2022/08/19 10:06:35;;;;;;;14.20;10.27;;;20.80;99.90;;;;;;4978144;28;20401;-70
2022/08/19 10:09:04;;;;;;;14.63;10.40;;;20.80;99.90;;;;;;4978304;28;20390;-69
2022/08/19 10:11:29;;;;;;;12.33;9.87;;;20.80;99.90;;;;;;4978167;28;20423;-69
2022/08/19 10:13:55;;;;;;;14.30;10.40;;;20.80;99.90;;;;;;4977649;28;20797;-68
2022/08/19 10:16:23;;;;;;;16.43;10.73;;;20.70;99.90;;;;;;4989412;28;20751;-69
2022/08/19 10:18:53;;;;;;;15.40;10.07;;;20.70;99.90;;;;;;4995147;28;20930;-67
2022/08/19 10:21:22;;;;;;;14.33;11.03;;;20.80;99.90;;;;;;4987279;28;20399;-68
2022/08/19 10:23:51;;;;;;;14.27;10.27;;;20.80;99.90;;;;;;4985599;28;20409;-68
2022/08/19 10:26:28;;;;;;;18.50;10.60;;;20.80;99.90;;;;;;4988282;28;20418;-69
2022/08/19 10:28:55;;;;;;;14.83;10.07;;;20.90;99.90;;;;;;4984694;28;20535;-68
2022/08/19 10:31:27;;;;;;;19.33;11.07;;;20.90;99.90;;;;;;4987497;28;20505;-69
2022/08/19 10:33:57;;;;;;;15.37;11.00;;;21.00;99.90;;;;;;4986220;28;20434;-68
2022/08/19 10:36:34;;;;;;;15.80;10.50;;;21.10;99.90;;;;;;4986127;28;20445;-68
2022/08/19 10:39:04;;;;;;;16.20;11.30;;;21.10;99.90;;;;;;4991633;28;20382;-68
2022/08/19 10:41:33;;;;;;;13.77;10.87;;;21.20;99.90;;;;;;4980964;28;20410;-68
2022/08/19 10:44:02;;;;;;;11.47;9.03;;;21.20;99.90;;;;;;4983974;28;20954;-68
2022/08/19 10:46:32;;;;;;;13.23;10.87;;;21.10;99.90;;;;;;4986094;28;20433;-68
2022/08/19 10:48:59;;;;;;;10.70;9.60;;;21.20;99.90;;;;;;4986947;28;20426;-68
2022/08/19 10:54:09;;;;;;;10.80;9.10;;;21.10;99.90;;;;;;4985578;28;20429;-68
2022/08/19 10:56:50;;;;;;;14.53;11.23;;;21.10;99.90;;;;;;4985445;28;20470;-69
2022/08/19 10:59:18;;;;;;;13.60;9.60;;;21.10;99.90;;;;;;4983874;28;20786;-68
2022/08/19 11:01:45;;;;;;;13.10;10.80;;;21.10;99.90;;;;;;4984609;28;20398;-69
2022/08/19 11:04:13;;;;;;;13.03;9.83;;;21.20;99.90;;;;;;4984916;28;20434;-68
2022/08/19 11:06:43;;;;;;;11.80;9.23;;;21.20;99.90;;;;;;4985464;28;20784;-68
2022/08/19 11:09:10;;;;;;;12.20;9.93;;;21.30;99.90;;;;;;4986939;28;20832;-70
2022/08/19 11:11:39;;;;;;;12.17;10.57;;;21.40;99.90;;;;;;4985417;28;20426;-67
2022/08/19 11:14:10;;;;;;;11.07;9.33;;;21.50;99.90;;;;;;4984106;28;20488;-67
2022/08/19 11:16:38;;;;;;;12.60;10.10;;;21.50;99.90;;;;;;4986036;28;20447;-68
2022/08/19 11:19:04;;;;;;;12.47;10.00;;;21.60;99.90;;;;;;4984990;28;20778;-68
2022/08/19 11:21:32;;;;;;;15.67;11.90;;;21.70;99.90;;;;;;4985135;28;20982;-68
2022/08/19 11:24:01;;;;;;;15.23;10.83;;;21.70;99.90;;;;;;4985553;28;20498;-68
2022/08/19 11:26:29;;;;;;;15.77;11.07;;;21.80;99.90;;;;;;4985216;28;20829;-67
2022/08/19 11:28:55;;;;;;;16.83;10.87;;;21.90;99.90;;;;;;4978504;28;20409;-69
2022/08/19 11:31:23;;;;;;;16.03;10.70;;;22.00;99.90;;;;;;4996028;28;20402;-69
2022/08/19 11:33:53;;;;;;;14.90;10.30;;;22.10;99.90;;;;;;4995688;28;20455;-69
2022/08/19 11:36:20;;;;;;;19.90;11.70;;;22.10;99.90;;;;;;4996152;28;20547;-69
2022/08/19 11:38:48;;;;;;;15.90;12.47;;;22.00;99.90;;;;;;4995568;28;20482;-69
2022/08/19 11:41:16;;;;;;;13.10;10.17;;;22.00;99.90;;;;;;4988195;28;20759;-70
2022/08/19 11:43:41;;;;;;;17.20;11.50;;;21.90;99.90;;;;;;4975904;28;20402;-70
2022/08/19 11:46:14;;;;;;;15.10;10.80;;;21.90;99.90;;;;;;4984602;28;20393;-70
2022/08/19 11:48:41;;;;;;;16.90;11.90;;;21.80;99.90;;;;;;4994876;28;20175;-70
2022/08/19 11:51:10;;;;;;;16.50;10.47;;;21.80;99.90;;;;;;4995813;28;20898;-69
2022/08/19 11:53:36;;;;;;;12.60;10.20;;;21.80;99.90;;;;;;4990181;28;20413;-69
2022/08/19 11:56:03;;;;;;;13.60;9.77;;;21.80;99.90;;;;;;4976344;28;20474;-68
2022/08/19 11:58:29;;;;;;;13.70;9.30;;;21.80;99.90;;;;;;4976266;28;20385;-68
2022/08/19 12:00:56;;;;;;;11.57;8.63;;;21.80;99.90;;;;;;4976362;28;20371;-68
2022/08/19 12:03:21;;;;;;;12.37;8.50;;;21.80;99.90;;;;;;4975376;28;20413;-68
2022/08/19 12:05:47;;;;;;;9.77;8.77;;;21.90;99.90;;;;;;4974820;28;20447;-68
2022/08/19 12:08:13;;;;;;;12.10;8.97;;;21.90;99.90;;;;;;4976095;28;20767;-69
2022/08/19 12:10:41;;;;;;;10.60;8.57;;;21.90;99.90;;;;;;4981653;28;20261;-67
2022/08/19 12:13:08;;;;;;;11.87;9.17;;;22.00;99.90;;;;;;4974874;28;20493;-68
2022/08/19 12:15:40;;;;;;;13.77;11.50;;;22.10;99.90;;;;;;4975601;28;20444;-68
2022/08/19 12:18:06;;;;;;;14.40;11.07;;;22.30;99.90;;;;;;4975712;28;20744;-68
2022/08/19 12:20:39;;;;;;;15.40;11.83;;;22.40;99.90;;;;;;4975856;28;20408;-68
2022/08/19 12:23:06;;;;;;;13.07;9.97;;;22.50;99.90;;;;;;4975175;28;20389;-69
2022/08/19 12:25:32;;;;;;;16.20;10.40;;;22.60;99.90;;;;;;4982727;28;20389;-69
2022/08/19 12:27:58;;;;;;;16.70;11.77;;;22.70;99.90;;;;;;4994881;28;20407;-69
2022/08/19 12:30:25;;;;;;;10.13;8.97;;;22.70;99.90;;;;;;4995269;28;20414;-68
2022/08/19 12:32:51;;;;;;;9.70;8.40;;;22.80;99.90;;;;;;4994520;28;20453;-68
2022/08/19 12:35:19;;;;;;;12.70;8.20;;;22.90;99.90;;;;;;4994853;28;20411;-68
2022/08/19 12:37:47;;;;;;;11.67;8.50;;;23.00;99.90;;;;;;4994865;28;20398;-68
2022/08/19 12:40:14;;;;;;;11.57;8.33;;;23.10;99.90;;;;;;4987013;28;20403;-68
2022/08/19 12:42:43;;;;;;;13.93;10.50;;;23.10;99.90;;;;;;4975036;28;20762;-68
2022/08/19 12:45:13;;;;;;;14.03;9.40;;;23.10;99.90;;;;;;4975058;28;20424;-68
2022/08/19 12:47:39;;;;;;;13.67;11.30;;;22.90;99.90;;;;;;4975343;28;20760;-69
2022/08/19 12:50:08;;;;;;;15.77;10.30;;;22.80;99.90;;;;;;4975082;28;20418;-68
2022/08/19 12:52:36;;;;;;;14.00;10.70;;;22.80;99.90;;;;;;4974824;28;20421;-68
2022/08/19 12:55:04;;;;;;;13.60;10.73;;;22.60;99.90;;;;;;4981274;28;20530;-68
2022/08/19 12:57:32;;;;;;;18.73;11.57;;;22.50;99.90;;;;;;4994251;28;20454;-68
2022/08/19 13:00:16;;;;;;;15.03;11.13;;;22.30;99.90;;;;;;4992780;28;20846;-69
2022/08/19 13:02:45;;;;;;;15.80;11.00;;;22.10;99.90;;;;;;4974460;28;20516;-68
2022/08/19 13:05:13;;;;;;;14.00;11.60;;;22.00;99.90;;;;;;4974536;28;21021;-68
2022/08/19 13:07:40;;;;;;;14.20;10.60;;;21.80;99.90;;;;;;4974946;28;20404;-68
2022/08/19 13:10:08;;;;;;;15.07;11.43;;;21.50;99.90;;;;;;4974985;28;20396;-68
2022/08/19 13:12:34;;;;;;;16.00;13.30;;;21.30;99.90;;;;;;4974695;28;20412;-68
2022/08/19 13:15:00;;;;;;;14.20;11.80;;;21.00;99.90;;;;;;4980921;28;20417;-67
2022/08/19 13:17:26;;;;;;;19.63;10.70;;;20.80;99.90;;;;;;4993470;28;20787;-67
2022/08/19 13:19:52;;;;;;;15.53;11.00;;;20.60;99.90;;;;;;4994454;28;20808;-66
2022/08/19 13:22:18;;;;;;;19.37;11.90;;;20.50;99.90;;;;;;4993789;28;20468;-66
2022/08/19 13:24:44;;;;;;;17.23;12.10;;;20.30;99.90;;;;;;4994117;28;20424;-66
2022/08/19 13:27:09;;;;;;;20.23;12.63;;;20.30;99.90;;;;;;4994267;28;20298;-64
2022/08/19 13:35:04;;;;;;;18.67;11.90;;;20.10;99.90;;;;;;4974679;28;20891;-66
2022/08/19 13:37:42;;;;;;;20.23;13.10;;;20.20;99.90;;;;;;4974698;28;20451;-66
2022/08/19 13:40:18;;;;;;;19.93;12.70;;;20.10;99.90;;;;;;4974417;28;20415;-66
2022/08/19 13:42:46;;;;;;;19.57;13.57;;;20.10;99.90;;;;;;4974402;28;20513;-65
2022/08/19 13:45:12;;;;;;;18.70;12.40;;;20.10;99.90;;;;;;4986289;28;20589;-66
2022/08/19 13:47:42;;;;;;;17.77;12.30;;;20.10;99.90;;;;;;4993754;28;20414;-65
2022/08/19 13:50:12;;;;;;;18.53;12.03;;;20.10;99.90;;;;;;4994135;28;20418;-67
2022/08/19 13:52:38;;;;;;;14.37;10.67;;;20.10;99.90;;;;;;4992546;28;20385;-66
2022/08/19 13:55:05;;;;;;;19.10;11.80;;;20.10;99.90;;;;;;4993421;28;20451;-67
2022/08/19 13:57:31;;;;;;;16.87;11.43;;;20.10;99.90;;;;;;4993592;28;20461;-66
2022/08/19 13:59:58;;;;;;;15.47;10.90;;;20.10;99.90;;;;;;4992087;28;20761;-66
2022/08/19 14:02:24;;;;;;;18.13;13.13;;;20.20;99.90;;;;;;4974100;28;20172;-67
2022/08/19 14:04:50;;;;;;;18.10;12.50;;;20.20;99.90;;;;;;4974200;28;20788;-66
2022/08/19 14:07:16;;;;;;;14.80;11.80;;;20.20;99.90;;;;;;4974139;28;20408;-66
2022/08/19 14:09:41;;;;;;;20.03;12.93;;;20.30;99.90;;;;;;4974289;28;20259;-67
2022/08/19 14:12:07;;;;;;;17.90;12.60;;;20.40;99.90;;;;;;4974251;28;20183;-65
2022/08/19 14:14:37;;;;;;;17.83;11.77;;;20.40;99.90;;;;;;4974014;28;20235;-68
2022/08/19 14:17:06;;;;;;;19.00;12.83;;;20.40;99.90;;;;;;4993405;28;20883;-66
2022/08/19 14:19:31;;;;;;;17.77;12.90;;;20.40;99.90;;;;;;4993422;28;20402;-65
2022/08/19 14:21:57;;;;;;;18.70;12.27;;;20.30;99.90;;;;;;4993616;28;20373;-65
2022/08/19 14:24:23;;;;;;;19.00;12.10;;;20.30;99.90;;;;;;4993082;28;20191;-65
2022/08/19 14:26:48;;;;;;;16.97;13.37;;;20.30;99.90;;;;;;4993649;28;20176;-66
2022/08/19 14:29:14;;;;;;;20.43;13.17;;;20.20;99.90;;;;;;4995354;28;20255;-66
2022/08/19 14:31:42;;;;;;;16.37;11.87;;;20.20;99.90;;;;;;4977810;28;20238;-67
2022/08/19 14:34:09;;;;;;;16.30;12.20;;;20.30;99.90;;;;;;4977366;28;20546;-68
2022/08/19 14:36:34;;;;;;;16.97;12.30;;;20.30;99.90;;;;;;4977468;28;20526;-65
2022/08/19 14:39:00;;;;;;;20.23;15.23;;;20.30;99.90;;;;;;4976329;28;21028;-67
2022/08/19 14:41:27;;;;;;;18.80;12.23;;;20.30;99.90;;;;;;4977770;28;20542;-66
2022/08/19 14:43:53;;;;;;;14.67;12.70;;;20.30;99.90;;;;;;4977034;28;20271;-69
2022/08/19 14:46:23;;;;;;;18.07;12.80;;;20.20;99.90;;;;;;4992892;28;20774;-65
2022/08/19 14:48:49;;;;;;;19.03;13.10;;;20.10;99.90;;;;;;4985244;28;20418;-66
2022/08/19 14:51:15;;;;;;;15.80;11.00;;;20.10;99.90;;;;;;4986432;28;20413;-66
2022/08/19 14:53:41;;;;;;;18.80;13.57;;;20.00;99.90;;;;;;4987629;28;20438;-67
2022/08/19 14:56:13;;;;;;;18.90;12.10;;;20.00;99.90;;;;;;4996728;28;21019;-68
2022/08/19 14:58:40;;;;;;;22.90;13.20;;;20.00;99.90;;;;;;4996831;28;20849;-68
2022/08/19 15:01:07;;;;;;;21.90;13.73;;;20.00;99.90;;;;;;4996398;28;20458;-66
2022/08/19 15:03:32;;;;;;;19.30;12.20;;;20.00;99.90;;;;;;4996223;28;20430;-66
2022/08/19 15:06:00;;;;;;;19.83;12.97;;;20.00;99.90;;;;;;4996555;28;20422;-66
2022/08/19 15:08:27;;;;;;;19.10;13.73;;;19.90;99.90;;;;;;4979186;28;20184;-65
2022/08/19 15:10:53;;;;;;;16.20;11.80;;;20.00;99.90;;;;;;4977368;28;20457;-67
2022/08/19 15:13:18;;;;;;;21.53;13.37;;;19.90;99.90;;;;;;4976468;28;20411;-66
2022/08/19 15:15:45;;;;;;;19.10;13.63;;;19.90;99.90;;;;;;4977020;28;20196;-68
2022/08/19 15:18:11;;;;;;;18.20;13.00;;;19.90;99.90;;;;;;4976927;28;20208;-66
2022/08/19 15:20:37;;;;;;;19.87;14.03;;;19.90;99.90;;;;;;4976819;28;20463;-67
2022/08/19 15:23:03;;;;;;;19.30;13.10;;;20.00;99.90;;;;;;4991932;28;20422;-66
2022/08/19 15:25:29;;;;;;;16.60;13.80;;;20.00;99.90;;;;;;4996385;28;20414;-66
2022/08/19 15:27:54;;;;;;;19.47;13.43;;;19.90;99.90;;;;;;4995932;28;20179;-66
2022/08/19 15:30:25;;;;;;;17.23;12.70;;;20.00;99.90;;;;;;4996256;28;20227;-64
2022/08/19 15:32:52;;;;;;;22.43;14.67;;;20.00;99.90;;;;;;4995601;28;20188;-62
2022/08/19 15:35:18;;;;;;;15.67;12.07;;;20.00;99.90;;;;;;4996163;28;20813;-63
2022/08/19 15:37:44;;;;;;;19.37;13.50;;;20.00;99.90;;;;;;4994602;28;20462;-61
2022/08/19 15:40:11;;;;;;;20.73;13.40;;;20.00;99.90;;;;;;4995655;28;20428;-61
2022/08/19 15:42:42;;;;;;;21.00;13.10;;;20.00;99.90;;;;;;4976883;28;20432;-63
2022/08/19 15:45:09;;;;;;;17.67;12.33;;;19.90;99.90;;;;;;4976364;28;20461;-64
2022/08/19 15:47:35;;;;;;;18.33;12.23;;;19.90;99.90;;;;;;4976539;28;20478;-64
2022/08/19 15:50:13;;;;;;;17.27;12.83;;;19.90;99.90;;;;;;4976571;28;20413;-63
2022/08/19 15:52:49;;;;;;;16.17;12.67;;;19.80;99.90;;;;;;4991661;28;20762;-62
2022/08/19 15:55:24;;;;;;;18.63;14.40;;;19.80;99.90;;;;;;4995452;28;20405;-63
2022/08/19 16:08:48;;;;;;;18.33;12.47;;;19.90;99.90;;;;;;4976098;28;20878;-62
2022/08/19 16:11:21;;;;;;;20.37;13.67;;;19.90;99.90;;;;;;4975833;28;20938;-65
2022/08/19 16:13:50;;;;;;;16.90;12.23;;;20.00;99.90;;;;;;4975616;28;20458;-65
2022/08/19 16:16:28;;;;;;;15.17;12.00;;;20.10;99.90;;;;;;4981829;28;20458;-64
2022/08/19 16:18:56;;;;;;;14.93;12.43;;;20.10;99.90;;;;;;4993336;28;20783;-66
2022/08/19 16:21:24;;;;;;;20.20;13.90;;;20.20;99.90;;;;;;4975897;28;20396;-65
2022/08/19 16:23:50;;;;;;;16.87;12.63;;;20.20;99.90;;;;;;4975379;28;20428;-65
2022/08/19 16:26:18;;;;;;;14.10;11.70;;;20.30;99.90;;;;;;4975690;28;20405;-65
2022/08/19 16:28:46;;;;;;;16.13;12.67;;;20.30;99.90;;;;;;4975737;28;20408;-66
2022/08/19 16:31:13;;;;;;;14.43;11.73;;;20.30;99.90;;;;;;4984088;28;20762;-67
2022/08/19 16:33:39;;;;;;;16.80;12.40;;;20.30;99.90;;;;;;4994650;28;20462;-66
2022/08/19 16:36:05;;;;;;;17.20;13.63;;;20.40;99.90;;;;;;4995021;28;20455;-67
2022/08/19 16:38:32;;;;;;;16.73;12.67;;;20.40;99.90;;;;;;4994874;28;20405;-66
2022/08/19 16:40:59;;;;;;;14.63;11.33;;;20.40;99.90;;;;;;4994775;28;20403;-65
2022/08/19 16:43:27;;;;;;;16.17;11.50;;;20.40;99.90;;;;;;4977019;28;20446;-65
2022/08/19 16:45:53;;;;;;;13.17;10.30;;;20.50;99.90;;;;;;4993775;28;20420;-66
2022/08/19 16:48:21;;;;;;;14.70;11.40;;;20.50;99.90;;;;;;4994653;28;20407;-66
2022/08/19 16:50:47;;;;;;;15.40;11.43;;;20.50;99.90;;;;;;4994356;28;20497;-67
2022/08/19 16:53:18;;;;;;;17.50;11.60;;;20.50;99.90;;;;;;4994053;28;20418;-65
2022/08/19 16:55:49;;;;;;;14.20;10.87;;;20.50;99.90;;;;;;4994655;28;20442;-66
2022/08/19 16:58:17;;;;;;;13.67;10.60;;;20.50;99.90;;;;;;4994452;28;20834;-67
2022/08/19 17:00:42;;;;;;;15.30;11.93;;;20.50;99.90;;;;;;4984841;28;20420;-65
2022/08/19 17:03:09;;;;;;;18.43;10.93;;;20.50;99.90;;;;;;4974586;28;20415;-66
2022/08/19 17:05:42;;;;;;;13.63;10.90;;;20.60;99.90;;;;;;4974952;28;20419;-67
2022/08/19 17:08:07;;;;;;;14.40;11.60;;;20.60;99.90;;;;;;4975137;28;20400;-66